createdAt,value
2023-03-06T05:37:33.071Z,5.10
2023-03-06T05:40:47.493Z,5.10
2023-03-06T05:44:01.563Z,4.60
2023-03-06T05:47:15.664Z,4.55
2023-03-06T05:50:29.909Z,4.43
2023-03-06T05:53:45.450Z,4.44
2023-03-06T05:56:59.535Z,4.69
2023-03-06T06:00:16.165Z,4.65
2023-03-06T06:03:30.427Z,4.76
2023-03-06T06:06:46.603Z,4.95
2023-03-06T06:10:03.739Z,4.89
2023-03-06T06:13:18.508Z,4.72
2023-03-06T06:16:33.269Z,4.89
2023-03-06T06:19:47.694Z,4.95
2023-03-06T06:23:11.263Z,5.07
2023-03-06T06:26:44.570Z,5.28
2023-03-06T06:29:59.869Z,5.35
2023-03-06T06:33:17.144Z,5.26
2023-03-06T06:36:32.961Z,5.61
2023-03-06T06:40:17.086Z,5.48
2023-03-06T06:43:42.410Z,5.41
2023-03-06T06:50:36.815Z,5.73
2023-03-06T06:54:10.475Z,5.68
2023-03-06T06:57:28.018Z,5.68
2023-03-06T07:00:56.576Z,6.02
2023-03-06T07:04:15.768Z,5.73
2023-03-06T07:07:41.971Z,5.81
2023-03-06T07:11:03.119Z,5.75
2023-03-06T07:21:50.822Z,5.88
2023-03-06T07:25:05.610Z,5.96
2023-03-06T07:28:24.853Z,5.78
2023-03-06T07:31:41.657Z,5.98
2023-03-06T07:35:20.947Z,6.15
2023-03-06T07:38:35.284Z,5.81
2023-03-06T07:41:49.604Z,6.06
2023-03-06T07:45:24.273Z,6.11
2023-03-06T07:48:43.067Z,6.21
2023-03-06T07:52:01.650Z,6.05
2023-03-06T07:55:25.340Z,6.19
2023-03-06T07:58:48.123Z,6.07
2023-03-06T08:05:34.687Z,6.49
2023-03-06T08:08:53.362Z,6.42
2023-03-06T08:12:08.677Z,6.34
2023-03-06T08:15:25.565Z,6.38
2023-03-06T08:18:40.062Z,6.30
2023-03-06T08:21:54.190Z,6.71
2023-03-06T08:25:15.747Z,6.71
2023-03-06T08:28:30.185Z,6.91
2023-03-06T08:32:07.044Z,7.01
2023-03-06T08:35:41.557Z,7.02
2023-03-06T08:39:03.635Z,7.31
2023-03-06T08:42:22.809Z,7.14
2023-03-06T08:45:37.100Z,7.32
2023-03-06T08:49:08.690Z,7.66
2023-03-06T08:52:30.790Z,7.98
2023-03-06T08:55:59.262Z,7.83
2023-03-06T08:59:51.255Z,8.27
2023-03-06T09:03:05.885Z,8.55
2023-03-06T09:06:21.394Z,9.24
2023-03-06T09:10:08.795Z,8.18
2023-03-06T09:13:49.818Z,8.39
2023-03-06T09:17:57.001Z,9.66
2023-03-06T09:21:14.706Z,9.61
2023-03-06T09:24:29.359Z,9.98
2023-03-06T09:28:10.440Z,8.90
2023-03-06T09:31:51.686Z,9.69
2023-03-06T09:35:28.577Z,9.45
2023-03-06T09:38:50.176Z,8.89
2023-03-06T09:42:16.021Z,8.62
2023-03-06T09:45:39.860Z,8.80
2023-03-06T09:49:19.688Z,9.05
2023-03-06T09:53:15.407Z,9.32
2023-03-06T09:56:34.781Z,8.98
2023-03-06T10:00:11.812Z,9.76
2023-03-06T10:03:43.054Z,9.48
2023-03-06T10:07:01.274Z,9.57
2023-03-06T10:10:31.653Z,9.63
2023-03-06T10:14:26.256Z,9.35
2023-03-06T10:18:19.897Z,9.60
2023-03-06T10:21:47.135Z,9.73
2023-03-06T10:25:45.622Z,8.22
2023-03-06T10:29:43.684Z,8.87
2023-03-06T10:33:04.631Z,8.57
2023-03-06T10:39:57.018Z,8.85
2023-03-06T10:43:13.441Z,8.86
2023-03-06T10:46:51.306Z,8.56
2023-03-06T10:50:17.457Z,9.12
2023-03-06T10:53:33.978Z,9.18
2023-03-06T10:56:49.372Z,8.92
2023-03-06T11:00:48.489Z,8.92
2023-03-06T11:04:36.564Z,8.75
2023-03-06T11:07:56.198Z,9.14
2023-03-06T11:11:37.102Z,9.18
2023-03-06T11:15:27.686Z,8.96
2023-03-06T11:19:14.940Z,9.48
2023-03-06T11:22:49.194Z,9.37
2023-03-06T11:26:39.741Z,9.13
2023-03-06T11:29:58.966Z,9.52
2023-03-06T11:34:05.795Z,9.35
2023-03-06T11:37:36.319Z,9.57
2023-03-06T11:41:19.174Z,9.49
2023-03-06T11:44:59.928Z,9.60
2023-03-06T11:48:34.486Z,9.27
2023-03-06T11:52:09.327Z,9.56
2023-03-06T11:55:45.273Z,10.07
2023-03-06T11:59:46.870Z,10.04
2023-03-06T12:03:33.374Z,9.68
2023-03-06T12:07:07.895Z,10.01
2023-03-06T12:14:59.185Z,10.56
2023-03-06T12:18:47.734Z,10.17
2023-03-06T12:22:29.135Z,10.24
2023-03-06T12:25:57.689Z,10.37
2023-03-06T12:29:33.916Z,10.04
2023-03-06T12:33:05.016Z,10.22
2023-03-06T12:37:01.752Z,10.53
2023-03-06T12:44:47.434Z,10.14
2023-03-06T12:48:19.479Z,10.18
2023-03-06T12:55:30.049Z,9.87
2023-03-06T12:59:19.389Z,10.03
2023-03-06T13:03:22.843Z,9.80
2023-03-06T13:07:02.852Z,10.00
2023-03-06T13:10:28.107Z,10.27
2023-03-06T13:13:45.440Z,9.99
2023-03-06T13:17:43.142Z,10.19
2023-03-06T13:21:05.967Z,10.22
2023-03-06T13:24:38.778Z,9.82
2023-03-06T13:28:05.032Z,10.03
2023-03-06T13:32:19.401Z,10.07
2023-03-06T13:36:00.490Z,10.36
2023-03-06T13:39:27.970Z,10.45
2023-03-06T13:43:23.009Z,10.11
2023-03-06T13:46:40.951Z,10.48
2023-03-06T13:50:04.425Z,10.28
2023-03-06T13:53:55.219Z,10.02
2023-03-06T13:57:56.677Z,10.26
2023-03-06T14:01:45.589Z,10.19
2023-03-06T14:05:02.738Z,10.11
2023-03-06T14:08:20.745Z,9.95
2023-03-06T14:11:35.220Z,9.63
2023-03-06T14:15:12.078Z,9.60
2023-03-06T14:18:28.338Z,9.52
2023-03-06T14:22:05.440Z,9.35
2023-03-06T14:25:38.627Z,9.74
2023-03-06T14:29:11.475Z,9.56
2023-03-06T14:32:31.971Z,9.39
2023-03-06T14:36:08.810Z,9.49
2023-03-06T14:39:40.846Z,9.51
2023-03-06T14:43:20.823Z,9.35
2023-03-06T14:46:37.345Z,9.60
2023-03-06T14:50:43.226Z,9.64
2023-03-06T14:54:05.038Z,9.77
2023-03-06T14:57:20.177Z,9.78
2023-03-06T15:00:37.103Z,9.70
2023-03-06T15:03:57.055Z,9.86
2023-03-06T15:07:26.005Z,9.81
2023-03-06T15:10:47.044Z,9.95
2023-03-06T15:14:04.684Z,9.63
2023-03-06T15:17:26.464Z,9.39
2023-03-06T15:20:56.109Z,9.59
2023-03-06T15:25:36.195Z,9.42
2023-03-06T15:29:42.311Z,9.23
2023-03-06T15:33:24.253Z,9.40
2023-03-06T15:36:38.981Z,8.85
2023-03-06T15:40:05.451Z,8.87
2023-03-06T15:43:19.748Z,8.53
2023-03-06T15:46:35.468Z,8.86
2023-03-06T15:49:52.240Z,8.88
2023-03-06T15:53:06.660Z,8.83
2023-03-06T15:56:21.449Z,8.72
2023-03-06T15:59:38.449Z,8.74
2023-03-06T16:02:54.438Z,9.03
2023-03-06T16:06:10.082Z,8.71
2023-03-06T16:09:24.443Z,9.00
2023-03-06T16:12:38.726Z,8.86
2023-03-06T16:15:52.938Z,8.93
2023-03-06T16:19:25.197Z,8.77
2023-03-06T16:22:40.447Z,8.37
2023-03-06T16:25:56.154Z,8.16
